Time;durP1;ratioP1;P1;durP2;ratioP2;P2;SDS_P1;SDS_P2;PMS_P1;PMS_P2;Temp;Humidity;BMP_temperature;BMP_pressure;BME280_temperature;BME280_humidity;BME280_pressure;Samples;Min_cycle;Max_cycle;Signal;HPM_P1;HPM_P2
2023/04/07 00:00:04;;;;;;;30.20;23.65;;;8.10;99.90;;;;;;5056711;28;20093;-62
2023/04/07 00:02:31;;;;;;;27.88;22.92;;;8.10;99.90;;;;;;5062425;28;20510;-62
2023/04/07 00:04:57;;;;;;;31.75;24.27;;;8.20;99.90;;;;;;5056474;28;20045;-62
2023/04/07 00:07:22;;;;;;;30.02;23.10;;;8.20;99.90;;;;;;5063709;28;20472;-62
2023/04/07 00:09:48;;;;;;;30.67;23.75;;;8.20;99.90;;;;;;5062095;28;20048;-62
2023/04/07 00:12:14;;;;;;;30.17;24.38;;;8.20;99.90;;;;;;5053736;28;20036;-61
2023/04/07 00:14:39;;;;;;;29.02;23.63;;;8.20;99.90;;;;;;5060999;28;22054;-62
2023/04/07 00:17:05;;;;;;;33.10;24.70;;;8.10;99.90;;;;;;5060001;28;20041;-62
2023/04/07 00:19:32;;;;;;;31.17;24.45;;;8.20;99.90;;;;;;5053939;28;20028;-62
2023/04/07 00:21:58;;;;;;;31.27;24.30;;;8.20;99.90;;;;;;5060495;28;20060;-61
2023/04/07 00:24:23;;;;;;;29.85;22.58;;;8.20;99.90;;;;;;5067564;28;20037;-62
2023/04/07 00:26:49;;;;;;;31.65;23.92;;;8.10;99.90;;;;;;5059868;28;20033;-62
2023/04/07 00:29:15;;;;;;;31.52;23.33;;;8.10;99.90;;;;;;5066194;28;20063;-62
2023/04/07 00:31:40;;;;;;;32.05;24.67;;;8.20;99.90;;;;;;5060655;28;20421;-61
2023/04/07 00:34:06;;;;;;;33.45;25.48;;;8.20;99.90;;;;;;5063250;28;20071;-62
2023/04/07 00:36:32;;;;;;;32.38;24.33;;;8.20;99.90;;;;;;5058307;28;20072;-62
2023/04/07 00:38:58;;;;;;;31.70;24.58;;;8.20;99.90;;;;;;5062780;28;20047;-62
2023/04/07 00:41:23;;;;;;;32.13;25.27;;;8.20;99.90;;;;;;5063848;28;20134;-62
2023/04/07 00:43:50;;;;;;;34.40;25.85;;;8.20;99.90;;;;;;5056500;28;20102;-62
2023/04/07 00:46:17;;;;;;;33.78;25.23;;;8.20;99.90;;;;;;5062279;28;20072;-62
2023/04/07 00:48:44;;;;;;;33.05;24.60;;;8.20;99.90;;;;;;5064407;28;20115;-62
2023/04/07 00:51:09;;;;;;;34.25;25.80;;;8.20;99.90;;;;;;5055259;28;20102;-62
2023/04/07 00:53:35;;;;;;;29.85;23.45;;;8.20;99.90;;;;;;5056004;28;20040;-62
2023/04/07 00:56:01;;;;;;;39.67;28.50;;;8.20;99.90;;;;;;5065890;28;20131;-62
2023/04/07 00:58:26;;;;;;;35.55;26.50;;;8.20;99.90;;;;;;5050538;28;20041;-62
2023/04/07 01:01:17;;;;;;;35.72;26.83;;;8.20;99.90;;;;;;5049672;28;20041;-62
2023/04/07 01:04:07;;;;;;;38.55;27.15;;;8.20;99.90;;;;;;5041994;28;20044;-61
2023/04/07 01:06:37;;;;;;;36.72;26.75;;;8.20;99.90;;;;;;5057622;28;20098;-61
2023/04/07 01:09:10;;;;;;;33.20;25.42;;;8.20;99.90;;;;;;5062654;28;20155;-61
2023/04/07 01:11:38;;;;;;;33.95;24.50;;;8.20;99.90;;;;;;5061435;28;20037;-61
2023/04/07 01:14:06;;;;;;;33.92;25.38;;;8.20;99.90;;;;;;5064850;28;20094;-62
2023/04/07 01:16:38;;;;;;;37.55;26.10;;;8.20;99.90;;;;;;5058877;28;20037;-61
2023/04/07 01:19:15;;;;;;;36.20;26.20;;;8.30;99.90;;;;;;5061806;28;20132;-62
2023/04/07 01:21:44;;;;;;;34.63;25.63;;;8.20;99.90;;;;;;5060592;28;20040;-61
2023/04/07 01:24:40;;;;;;;36.97;26.13;;;8.20;99.90;;;;;;5064137;28;20106;-61
2023/04/07 01:27:43;;;;;;;37.72;26.63;;;8.20;99.90;;;;;;5060234;28;20051;-61
2023/04/07 01:30:11;;;;;;;35.10;26.02;;;8.20;99.90;;;;;;5057834;28;20119;-61
2023/04/07 01:32:39;;;;;;;35.47;25.60;;;8.20;99.90;;;;;;5063006;28;20140;-61
2023/04/07 01:35:09;;;;;;;38.60;27.17;;;8.20;99.90;;;;;;5065856;28;20467;-62
2023/04/07 01:37:36;;;;;;;34.58;25.60;;;8.30;99.90;;;;;;5061112;28;20523;-61
2023/04/07 01:40:06;;;;;;;34.13;25.25;;;8.30;99.90;;;;;;5061429;28;20724;-61
2023/04/07 01:42:33;;;;;;;35.92;26.42;;;8.30;99.90;;;;;;5059015;28;20051;-62
2023/04/07 01:45:00;;;;;;;33.90;25.65;;;8.30;99.90;;;;;;5066206;28;20566;-62
2023/04/07 01:47:29;;;;;;;35.88;26.83;;;8.30;99.90;;;;;;5062215;28;20105;-61
2023/04/07 01:49:57;;;;;;;37.40;27.00;;;8.30;99.90;;;;;;5062195;28;20036;-62
2023/04/07 01:52:25;;;;;;;36.97;25.95;;;8.30;99.90;;;;;;5068086;28;20075;-62
2023/04/07 01:54:52;;;;;;;35.35;25.08;;;8.30;99.90;;;;;;5062940;28;20045;-62
2023/04/07 01:57:17;;;;;;;36.72;26.88;;;8.30;99.90;;;;;;5067430;28;20041;-61
2023/04/07 01:59:43;;;;;;;36.30;27.05;;;8.30;99.90;;;;;;5064131;28;20369;-61
2023/04/07 02:02:08;;;;;;;36.20;26.25;;;8.30;99.90;;;;;;5064584;28;20132;-61
2023/04/07 02:04:39;;;;;;;36.03;26.30;;;8.30;99.90;;;;;;5062443;28;20054;-62
2023/04/07 02:07:14;;;;;;;34.00;24.92;;;8.30;99.90;;;;;;5069433;28;20047;-62
2023/04/07 02:09:42;;;;;;;36.80;25.58;;;8.30;99.90;;;;;;5062341;28;20430;-62
2023/04/07 02:12:10;;;;;;;38.25;26.98;;;8.40;99.90;;;;;;5055948;28;20068;-61
2023/04/07 02:14:37;;;;;;;37.22;25.75;;;8.40;99.90;;;;;;5059216;28;20522;-61
2023/04/07 02:17:04;;;;;;;39.08;26.55;;;8.40;99.90;;;;;;5062604;28;20067;-61
2023/04/07 02:19:31;;;;;;;34.85;25.50;;;8.40;99.90;;;;;;5061730;28;20091;-62
2023/04/07 02:22:00;;;;;;;41.92;27.90;;;8.40;99.90;;;;;;5061845;28;20113;-61
2023/04/07 02:24:25;;;;;;;38.75;27.27;;;8.40;99.90;;;;;;5056626;28;20037;-62
2023/04/07 02:26:51;;;;;;;44.17;28.27;;;8.40;99.90;;;;;;5062445;28;20117;-62
2023/04/07 02:29:16;;;;;;;37.97;26.42;;;8.40;99.90;;;;;;5047845;28;20349;-62
2023/04/07 02:31:42;;;;;;;36.38;24.58;;;8.40;99.90;;;;;;5060809;28;20049;-61
2023/04/07 02:34:08;;;;;;;35.50;24.98;;;8.40;99.90;;;;;;5066193;28;20127;-61
2023/04/07 02:36:33;;;;;;;35.08;25.42;;;8.40;99.90;;;;;;5062765;28;20095;-62
2023/04/07 02:38:59;;;;;;;36.60;26.08;;;8.40;99.90;;;;;;5065679;28;20438;-61
2023/04/07 02:41:25;;;;;;;37.33;25.63;;;8.40;99.90;;;;;;5061836;28;20041;-61
2023/04/07 02:43:50;;;;;;;34.50;25.02;;;8.40;99.90;;;;;;5053963;28;20160;-61
2023/04/07 02:46:16;;;;;;;36.88;26.05;;;8.40;99.90;;;;;;5053695;28;20048;-62
2023/04/07 02:48:41;;;;;;;38.88;27.00;;;8.40;99.90;;;;;;5056888;28;20141;-62
2023/04/07 02:51:07;;;;;;;38.60;26.10;;;8.40;99.90;;;;;;5052800;28;20500;-62
2023/04/07 02:53:33;;;;;;;39.67;27.48;;;8.40;99.90;;;;;;5053884;28;20122;-62
2023/04/07 02:55:59;;;;;;;41.00;27.00;;;8.40;99.90;;;;;;5059859;28;20052;-62
2023/04/07 02:58:24;;;;;;;34.28;25.30;;;8.40;99.90;;;;;;5059346;28;20040;-62
2023/04/07 03:00:50;;;;;;;33.90;24.52;;;8.40;99.90;;;;;;5062933;28;20116;-62
2023/04/07 03:03:15;;;;;;;34.97;25.65;;;8.40;99.90;;;;;;5059208;28;20114;-61
2023/04/07 03:05:41;;;;;;;36.67;25.55;;;8.40;99.90;;;;;;5056774;28;20033;-61
2023/04/07 03:08:07;;;;;;;35.95;24.95;;;8.40;99.90;;;;;;5055724;28;20040;-62
2023/04/07 03:10:32;;;;;;;35.05;24.33;;;8.40;99.90;;;;;;5055531;28;20064;-62
2023/04/07 03:12:58;;;;;;;33.28;23.55;;;8.40;99.90;;;;;;5055092;28;20452;-62
2023/04/07 03:15:23;;;;;;;33.83;24.08;;;8.50;99.90;;;;;;5056592;28;20059;-62
2023/04/07 03:17:49;;;;;;;36.97;24.65;;;8.50;99.90;;;;;;5050979;28;20485;-61
2023/04/07 03:20:16;;;;;;;33.97;23.23;;;8.40;99.90;;;;;;5052616;28;20052;-61
2023/04/07 03:22:41;;;;;;;35.42;24.73;;;8.40;99.90;;;;;;5052415;28;20057;-61
2023/04/07 03:25:07;;;;;;;32.78;21.65;;;8.50;99.90;;;;;;5054212;28;20054;-61
2023/04/07 03:27:33;;;;;;;31.05;20.92;;;8.50;99.90;;;;;;5058097;28;20059;-61
2023/04/07 03:29:58;;;;;;;32.35;20.77;;;8.40;99.90;;;;;;5050129;28;20072;-61
2023/04/07 03:32:24;;;;;;;32.03;20.63;;;8.50;99.90;;;;;;5056251;28;20637;-62
2023/04/07 03:34:49;;;;;;;25.80;15.98;;;8.40;99.90;;;;;;5055185;28;20163;-62
2023/04/07 03:37:15;;;;;;;24.90;15.82;;;8.50;99.90;;;;;;5053786;28;20445;-61
2023/04/07 03:39:41;;;;;;;29.65;16.55;;;8.50;99.90;;;;;;5056649;28;20148;-62
2023/04/07 03:42:06;;;;;;;23.02;13.63;;;8.50;99.90;;;;;;5054553;28;20051;-61
2023/04/07 03:44:32;;;;;;;22.35;12.45;;;8.50;99.90;;;;;;5050445;28;20051;-62
2023/04/07 03:46:58;;;;;;;23.33;12.50;;;8.50;99.90;;;;;;5054321;28;20399;-62
2023/04/07 03:49:23;;;;;;;21.33;10.77;;;8.40;99.90;;;;;;5052484;28;20515;-61
2023/04/07 03:51:49;;;;;;;20.45;10.77;;;8.50;99.90;;;;;;5052869;28;20059;-61
2023/04/07 03:54:14;;;;;;;20.45;10.32;;;8.50;99.90;;;;;;5054116;28;20032;-62
2023/04/07 03:56:40;;;;;;;22.40;11.13;;;8.50;99.90;;;;;;5054297;28;20429;-62
2023/04/07 03:59:08;;;;;;;29.55;12.20;;;8.50;99.90;;;;;;5050511;28;20045;-63
2023/04/07 04:01:35;;;;;;;23.10;10.15;;;8.50;99.90;;;;;;5075193;28;20049;-62
2023/04/07 04:04:01;;;;;;;21.88;10.63;;;8.50;99.90;;;;;;5054299;28;20037;-63
2023/04/07 04:06:26;;;;;;;29.02;10.52;;;8.50;99.90;;;;;;5052046;28;20099;-62
2023/04/07 04:08:52;;;;;;;22.20;10.05;;;8.50;99.90;;;;;;5053822;28;20076;-62
2023/04/07 04:11:17;;;;;;;27.55;9.88;;;8.50;99.90;;;;;;5060237;28;20132;-62
2023/04/07 04:13:43;;;;;;;26.42;10.65;;;8.50;99.90;;;;;;5056770;28;20104;-62
2023/04/07 04:16:09;;;;;;;24.90;10.20;;;8.50;99.90;;;;;;5057451;28;20048;-62
2023/04/07 04:18:34;;;;;;;27.73;11.23;;;8.50;99.90;;;;;;5071987;28;20186;-63
2023/04/07 04:21:00;;;;;;;27.88;10.80;;;8.50;99.90;;;;;;5062652;28;20040;-62
2023/04/07 04:23:26;;;;;;;27.52;11.02;;;8.50;99.90;;;;;;5069470;28;20067;-62
2023/04/07 04:25:51;;;;;;;30.70;10.63;;;8.50;99.90;;;;;;5064085;28;20068;-63
2023/04/07 04:28:17;;;;;;;28.50;10.85;;;8.50;99.90;;;;;;5064266;28;20062;-62
2023/04/07 04:30:42;;;;;;;26.30;10.57;;;8.50;99.90;;;;;;5069317;28;20048;-61
2023/04/07 04:33:08;;;;;;;32.05;11.30;;;8.50;99.90;;;;;;5070321;28;20044;-63
2023/04/07 04:35:33;;;;;;;25.30;10.05;;;8.50;99.90;;;;;;5061992;28;20337;-61
2023/04/07 04:37:59;;;;;;;27.88;9.82;;;8.50;99.90;;;;;;5056626;28;20068;-62
2023/04/07 04:40:24;;;;;;;26.73;9.90;;;8.50;99.90;;;;;;5050682;28;20425;-62
2023/04/07 04:42:50;;;;;;;25.13;10.20;;;8.50;99.90;;;;;;5054263;28;20067;-63
2023/04/07 04:45:16;;;;;;;26.92;10.13;;;8.50;99.90;;;;;;5054681;28;20033;-63
2023/04/07 04:47:42;;;;;;;25.00;9.82;;;8.50;99.90;;;;;;5051865;28;20041;-62
2023/04/07 04:50:09;;;;;;;27.63;10.48;;;8.50;99.90;;;;;;5053100;28;20083;-63
2023/04/07 04:52:34;;;;;;;26.48;11.07;;;8.50;99.90;;;;;;5053703;28;20072;-63
2023/04/07 04:55:00;;;;;;;19.85;9.02;;;8.50;99.90;;;;;;5050024;28;20053;-63
2023/04/07 04:57:25;;;;;;;30.52;10.75;;;8.50;99.90;;;;;;5052241;28;20119;-63
2023/04/07 04:59:51;;;;;;;27.52;10.88;;;8.50;99.90;;;;;;5054558;28;20028;-63
2023/04/07 05:02:17;;;;;;;23.48;10.10;;;8.50;99.90;;;;;;5053363;28;20052;-62
2023/04/07 05:04:42;;;;;;;31.20;10.88;;;8.50;99.90;;;;;;5052861;28;20076;-63
2023/04/07 05:07:08;;;;;;;25.73;10.73;;;8.50;99.90;;;;;;5063781;28;20364;-63
2023/04/07 05:09:33;;;;;;;28.25;10.25;;;8.50;99.90;;;;;;5055907;28;20123;-62
2023/04/07 05:12:00;;;;;;;23.77;9.57;;;8.60;99.90;;;;;;5066315;28;20151;-62
2023/04/07 05:14:26;;;;;;;25.23;10.40;;;8.50;99.90;;;;;;5054496;28;20040;-63
2023/04/07 05:16:53;;;;;;;33.92;11.38;;;8.60;99.90;;;;;;5067729;28;20123;-63
2023/04/07 05:19:18;;;;;;;43.70;21.15;;;8.60;99.90;;;;;;5069589;28;20564;-63
2023/04/07 05:21:44;;;;;;;30.65;19.98;;;8.50;99.90;;;;;;5050251;28;20098;-63
2023/04/07 05:24:09;;;;;;;34.38;19.75;;;8.60;99.90;;;;;;5052658;28;20041;-63
2023/04/07 05:26:35;;;;;;;34.67;22.17;;;8.60;99.90;;;;;;5051461;28;20041;-64
2023/04/07 05:29:00;;;;;;;30.90;20.42;;;8.50;99.90;;;;;;5052980;28;20075;-63
2023/04/07 05:31:26;;;;;;;32.40;20.98;;;8.60;99.90;;;;;;5048610;28;20040;-63
2023/04/07 05:33:52;;;;;;;28.48;19.83;;;8.60;99.90;;;;;;5054595;28;20372;-63
2023/04/07 05:36:18;;;;;;;27.20;19.70;;;8.60;99.90;;;;;;5051707;28;20047;-63
2023/04/07 05:38:43;;;;;;;29.88;19.92;;;8.60;99.90;;;;;;5052276;28;20052;-63
2023/04/07 05:41:09;;;;;;;30.17;19.80;;;8.60;99.90;;;;;;5051503;28;20033;-63
2023/04/07 05:43:34;;;;;;;28.30;19.05;;;8.60;99.90;;;;;;5048628;28;20072;-63
2023/04/07 05:46:00;;;;;;;24.38;18.75;;;8.60;99.90;;;;;;5050907;28;20049;-63
2023/04/07 05:48:26;;;;;;;28.25;19.77;;;8.60;99.90;;;;;;5049658;28;20052;-63
2023/04/07 05:50:51;;;;;;;25.73;19.33;;;8.60;99.90;;;;;;5048802;28;20041;-63
2023/04/07 05:53:17;;;;;;;26.88;19.30;;;8.60;99.90;;;;;;5051385;28;20059;-64
2023/04/07 05:55:43;;;;;;;28.52;20.60;;;8.60;99.90;;;;;;5050750;28;20045;-63
2023/04/07 05:58:08;;;;;;;27.58;21.05;;;8.60;99.90;;;;;;5054702;28;20037;-63
2023/04/07 06:00:34;;;;;;;29.17;20.75;;;8.70;99.90;;;;;;5053913;28;20369;-63
2023/04/07 06:03:00;;;;;;;29.17;20.70;;;8.60;99.90;;;;;;5055715;28;20071;-63
2023/04/07 06:05:26;;;;;;;27.42;20.02;;;8.60;99.90;;;;;;5062763;28;20459;-63
2023/04/07 06:07:53;;;;;;;24.02;18.60;;;8.60;99.90;;;;;;5056284;28;20041;-63
2023/04/07 06:10:19;;;;;;;23.88;18.05;;;8.60;99.90;;;;;;5059897;28;20130;-64
2023/04/07 06:12:44;;;;;;;28.35;20.08;;;8.60;99.90;;;;;;5055759;28;20052;-64
2023/04/07 06:15:10;;;;;;;25.90;19.08;;;8.60;99.90;;;;;;5065595;28;20077;-63
2023/04/07 06:17:36;;;;;;;24.40;17.73;;;8.60;99.90;;;;;;5059770;28;20037;-63
2023/04/07 06:20:01;;;;;;;24.10;18.15;;;8.60;99.90;;;;;;5058552;28;20052;-63
2023/04/07 06:22:27;;;;;;;22.55;17.15;;;8.60;99.90;;;;;;5072496;28;20121;-63
2023/04/07 06:24:52;;;;;;;23.52;18.17;;;8.60;99.90;;;;;;5071588;28;20033;-63
2023/04/07 06:27:18;;;;;;;21.95;16.25;;;8.60;99.90;;;;;;5072772;28;20083;-62
2023/04/07 06:29:44;;;;;;;23.85;18.23;;;8.70;99.90;;;;;;5067740;28;20093;-63
2023/04/07 06:32:09;;;;;;;22.00;16.92;;;8.70;99.90;;;;;;5069439;28;20057;-62
2023/04/07 06:34:35;;;;;;;21.13;16.50;;;8.70;99.90;;;;;;5065527;28;20037;-64
2023/04/07 06:37:01;;;;;;;22.15;15.40;;;8.70;99.90;;;;;;5066276;28;20047;-63
2023/04/07 06:39:26;;;;;;;19.38;14.75;;;8.70;99.90;;;;;;5073274;28;20297;-63
2023/04/07 06:41:52;;;;;;;20.83;15.25;;;8.70;99.90;;;;;;5067651;28;20136;-62
2023/04/07 06:44:18;;;;;;;18.20;14.35;;;8.70;99.90;;;;;;5065092;28;20052;-62
2023/04/07 06:46:46;;;;;;;18.35;14.23;;;8.70;99.90;;;;;;5069695;28;20138;-62
2023/04/07 06:49:11;;;;;;;18.55;13.60;;;8.70;99.90;;;;;;5054725;28;20119;-62
2023/04/07 06:51:37;;;;;;;18.20;14.10;;;8.60;99.90;;;;;;5067830;28;20131;-62
2023/04/07 06:54:04;;;;;;;16.67;12.88;;;8.70;99.90;;;;;;5057421;28;20049;-62
2023/04/07 06:56:29;;;;;;;17.88;14.25;;;8.70;99.90;;;;;;5064912;28;20122;-62
2023/04/07 06:58:55;;;;;;;16.77;13.20;;;8.70;99.90;;;;;;5066394;28;20440;-64
2023/04/07 07:01:21;;;;;;;17.27;13.38;;;8.70;99.90;;;;;;5058997;28;20040;-63
2023/04/07 07:03:46;;;;;;;18.13;13.75;;;8.70;99.90;;;;;;5060074;28;20091;-64
2023/04/07 07:06:12;;;;;;;17.42;13.48;;;8.70;99.90;;;;;;5062326;28;20456;-63
2023/04/07 07:08:38;;;;;;;16.60;13.07;;;8.80;99.90;;;;;;5060806;28;20041;-63
2023/04/07 07:11:03;;;;;;;17.50;13.63;;;8.80;99.90;;;;;;5064093;28;20067;-63
2023/04/07 07:13:29;;;;;;;16.10;12.75;;;8.90;99.90;;;;;;5055115;28;20044;-64
2023/04/07 07:15:55;;;;;;;14.85;12.05;;;8.90;99.90;;;;;;5062612;28;20041;-63
2023/04/07 07:18:20;;;;;;;14.73;11.98;;;9.00;99.90;;;;;;5061838;28;20052;-63
2023/04/07 07:20:46;;;;;;;14.52;11.48;;;9.00;99.90;;;;;;5063288;28;20036;-63
2023/04/07 07:23:11;;;;;;;13.85;10.90;;;9.10;99.90;;;;;;5062594;28;20048;-63
2023/04/07 07:25:37;;;;;;;13.88;11.15;;;9.20;99.90;;;;;;5056093;28;20029;-63
2023/04/07 07:28:03;;;;;;;15.65;11.85;;;9.20;99.90;;;;;;5059695;28;20403;-63
2023/04/07 07:30:28;;;;;;;15.23;12.38;;;9.20;99.90;;;;;;5063140;28;20120;-64
2023/04/07 07:32:55;;;;;;;13.23;11.18;;;9.30;99.90;;;;;;5061184;28;20045;-64
2023/04/07 07:35:21;;;;;;;15.77;12.18;;;9.40;99.90;;;;;;5066251;28;20169;-64
2023/04/07 07:37:47;;;;;;;14.18;10.93;;;9.40;99.90;;;;;;5065518;28;20051;-64
2023/04/07 07:40:13;;;;;;;13.60;10.00;;;9.50;99.90;;;;;;5061620;28;20036;-63
2023/04/07 07:42:39;;;;;;;16.20;11.23;;;9.60;99.90;;;;;;5069138;28;20036;-64
2023/04/07 07:45:05;;;;;;;13.20;10.65;;;9.60;99.90;;;;;;5056743;28;20480;-64
2023/04/07 07:47:31;;;;;;;12.93;10.48;;;9.50;99.90;;;;;;5058731;28;20048;-64
2023/04/07 07:49:57;;;;;;;13.07;10.15;;;9.50;99.90;;;;;;5057481;28;20087;-64
2023/04/07 07:52:22;;;;;;;13.48;10.60;;;9.50;99.90;;;;;;5051340;28;20488;-64
2023/04/07 07:54:49;;;;;;;13.02;10.27;;;9.50;99.90;;;;;;5050929;28;20407;-64
2023/04/07 07:57:15;;;;;;;11.88;9.63;;;9.50;99.90;;;;;;5064343;28;20165;-64
2023/04/07 07:59:40;;;;;;;14.25;9.75;;;9.40;99.90;;;;;;5065670;28;20074;-64
2023/04/07 08:02:07;;;;;;;13.38;10.40;;;9.50;99.90;;;;;;5060225;28;20037;-64
2023/04/07 08:04:32;;;;;;;12.85;9.88;;;9.50;99.90;;;;;;5064121;28;20052;-64
2023/04/07 08:06:58;;;;;;;12.07;8.85;;;9.60;99.90;;;;;;5067738;28;20056;-64
2023/04/07 08:09:24;;;;;;;11.65;9.02;;;9.70;99.90;;;;;;5050518;28;20076;-64
2023/04/07 08:11:50;;;;;;;11.60;8.90;;;9.70;99.90;;;;;;5055926;28;20528;-63
2023/04/07 08:14:16;;;;;;;13.07;9.52;;;9.80;99.90;;;;;;5061004;28;20052;-64
2023/04/07 08:16:42;;;;;;;11.18;8.95;;;9.90;99.90;;;;;;5068269;28;20056;-63
2023/04/07 08:19:08;;;;;;;11.25;8.93;;;9.90;99.90;;;;;;5069766;28;20044;-64
2023/04/07 08:21:33;;;;;;;11.40;8.23;;;10.00;99.90;;;;;;5063127;28;20456;-64
2023/04/07 08:23:59;;;;;;;10.05;8.18;;;10.00;99.90;;;;;;5065199;28;20051;-64
2023/04/07 08:26:25;;;;;;;10.55;8.40;;;10.10;99.90;;;;;;5060359;28;20049;-64
2023/04/07 08:28:51;;;;;;;9.55;7.75;;;10.20;99.90;;;;;;5063510;28;20055;-64
2023/04/07 08:31:17;;;;;;;11.80;8.75;;;10.30;99.90;;;;;;5067331;28;20367;-64
2023/04/07 08:33:42;;;;;;;11.13;8.50;;;10.30;99.90;;;;;;5063117;28;20047;-64
2023/04/07 08:36:08;;;;;;;10.02;7.47;;;10.50;99.90;;;;;;5068598;28;20040;-64
2023/04/07 08:38:33;;;;;;;9.65;7.28;;;10.60;99.90;;;;;;5065018;28;20067;-64
2023/04/07 08:41:03;;;;;;;10.02;7.80;;;10.60;99.90;;;;;;5060789;28;20033;-64
2023/04/07 08:43:29;;;;;;;8.43;6.45;;;10.70;99.90;;;;;;5064428;28;20044;-64
2023/04/07 08:45:56;;;;;;;9.77;7.03;;;10.90;99.90;;;;;;5060775;28;20040;-65
2023/04/07 08:48:26;;;;;;;9.23;6.45;;;11.00;99.90;;;;;;5063069;28;20091;-64
2023/04/07 08:50:52;;;;;;;8.27;6.03;;;11.20;99.90;;;;;;5060000;28;20352;-65
2023/04/07 08:53:26;;;;;;;7.63;6.00;;;11.20;99.90;;;;;;5057330;28;20468;-64
2023/04/07 08:55:54;;;;;;;8.23;5.93;;;11.20;99.90;;;;;;5062466;28;20087;-64
2023/04/07 08:58:20;;;;;;;8.45;5.72;;;11.20;99.90;;;;;;5056291;28;20055;-64
2023/04/07 09:00:48;;;;;;;8.23;5.53;;;11.10;99.90;;;;;;5058678;28;20052;-64
2023/04/07 09:03:15;;;;;;;8.98;5.07;;;11.10;99.90;;;;;;5058085;28;20045;-63
2023/04/07 09:05:45;;;;;;;7.55;4.63;;;11.00;99.90;;;;;;5066311;28;20044;-64
2023/04/07 09:08:11;;;;;;;5.35;3.60;;;10.90;99.90;;;;;;5069943;28;20380;-64
2023/04/07 09:10:36;;;;;;;6.60;3.53;;;10.80;99.90;;;;;;5051627;28;20056;-64
2023/04/07 09:13:02;;;;;;;5.80;3.83;;;10.70;99.90;;;;;;5053102;28;20037;-64
2023/04/07 09:15:31;;;;;;;6.22;4.30;;;10.60;99.90;;;;;;5062130;28;20036;-64
2023/04/07 09:17:58;;;;;;;6.43;4.40;;;10.60;99.90;;;;;;5064358;28;20036;-63
2023/04/07 09:20:24;;;;;;;6.85;5.00;;;10.60;99.90;;;;;;5053534;28;20060;-64
2023/04/07 09:22:50;;;;;;;11.15;7.30;;;10.50;99.90;;;;;;5052735;28;20056;-64
2023/04/07 09:25:22;;;;;;;11.40;9.02;;;10.50;99.90;;;;;;5054405;28;20325;-64
2023/04/07 09:28:04;;;;;;;10.85;8.60;;;10.40;99.90;;;;;;5061499;28;20049;-64
2023/04/07 09:30:31;;;;;;;11.85;9.80;;;10.40;99.90;;;;;;5059030;28;20128;-63
2023/04/07 09:32:58;;;;;;;12.23;9.85;;;10.50;99.90;;;;;;5051512;28;20111;-64
2023/04/07 09:35:24;;;;;;;11.70;8.98;;;10.50;99.90;;;;;;5055492;28;20068;-63
2023/04/07 09:38:01;;;;;;;10.45;8.32;;;10.60;99.90;;;;;;5066892;28;20412;-64
2023/04/07 09:40:27;;;;;;;10.80;8.30;;;10.70;99.90;;;;;;5054339;28;20055;-64
2023/04/07 09:42:52;;;;;;;10.55;8.00;;;10.80;99.90;;;;;;5065329;28;20032;-64
2023/04/07 09:45:25;;;;;;;11.77;8.52;;;10.80;99.90;;;;;;5067865;28;20472;-64
2023/04/07 09:47:52;;;;;;;10.98;9.05;;;10.90;99.90;;;;;;5060021;28;20559;-63
2023/04/07 09:50:34;;;;;;;13.13;9.77;;;10.90;99.90;;;;;;5067314;28;20464;-64
2023/04/07 09:53:01;;;;;;;12.13;9.52;;;10.90;99.90;;;;;;5061972;28;20120;-64
2023/04/07 09:55:27;;;;;;;12.13;10.07;;;11.00;99.90;;;;;;5071587;28;20055;-64
2023/04/07 09:57:57;;;;;;;12.25;10.00;;;11.10;99.90;;;;;;5065030;28;20032;-64
2023/04/07 10:00:23;;;;;;;11.68;9.65;;;11.10;99.90;;;;;;5068891;28;20463;-64
2023/04/07 10:02:50;;;;;;;13.80;10.35;;;11.10;99.90;;;;;;5064181;28;20085;-64
2023/04/07 10:05:16;;;;;;;13.32;11.00;;;11.00;99.90;;;;;;5059968;28;20516;-64
2023/04/07 10:07:42;;;;;;;13.82;10.88;;;11.00;99.90;;;;;;5069768;28;20094;-64
2023/04/07 10:10:08;;;;;;;12.85;10.27;;;11.00;99.90;;;;;;5064599;28;20123;-64
2023/04/07 10:12:36;;;;;;;12.48;10.55;;;11.00;99.90;;;;;;5067164;28;20114;-64
2023/04/07 10:15:03;;;;;;;13.20;10.18;;;11.10;99.90;;;;;;5068050;28;20079;-63
2023/04/07 10:17:31;;;;;;;11.43;9.48;;;11.10;99.90;;;;;;5062582;28;20502;-64
2023/04/07 10:20:03;;;;;;;12.45;10.13;;;11.10;99.90;;;;;;5072716;28;20067;-63
2023/04/07 10:22:30;;;;;;;12.65;9.80;;;11.20;99.90;;;;;;5066988;28;20124;-64
2023/04/07 10:25:01;;;;;;;11.88;9.20;;;11.30;99.90;;;;;;5069758;28;20040;-64
2023/04/07 10:27:35;;;;;;;11.25;8.65;;;11.50;99.90;;;;;;5071037;28;20064;-63
2023/04/07 10:30:05;;;;;;;11.00;8.75;;;11.60;99.90;;;;;;5067673;28;20098;-63
2023/04/07 10:32:30;;;;;;;10.68;8.25;;;11.70;99.90;;;;;;5068477;28;20110;-65
2023/04/07 10:34:58;;;;;;;10.05;7.95;;;11.80;99.90;;;;;;5071856;28;20115;-64
2023/04/07 10:37:25;;;;;;;9.80;7.43;;;11.90;99.90;;;;;;5065127;28;20045;-64
2023/04/07 10:40:20;;;;;;;10.02;7.55;;;12.00;99.90;;;;;;5062774;28;20041;-64
2023/04/07 10:42:49;;;;;;;10.07;7.50;;;12.10;99.90;;;;;;5055353;28;20072;-64
2023/04/07 10:45:15;;;;;;;8.45;6.57;;;12.20;99.90;;;;;;5059033;28;20474;-65
2023/04/07 10:48:08;;;;;;;8.70;6.50;;;12.20;99.90;;;;;;5063586;28;20656;-64
2023/04/07 10:50:35;;;;;;;8.80;6.40;;;12.20;99.90;;;;;;5068596;28;20071;-64
2023/04/07 10:53:09;;;;;;;9.20;7.18;;;12.20;99.90;;;;;;5059868;28;20059;-64
2023/04/07 10:55:39;;;;;;;9.40;6.32;;;12.20;99.90;;;;;;5058122;28;20415;-64
2023/04/07 10:58:25;;;;;;;8.48;6.20;;;12.10;99.90;;;;;;5064059;28;20383;-65
2023/04/07 11:00:59;;;;;;;;;;;12.10;99.90;;;;;;5067403;28;20047;-64
2023/04/07 11:03:27;;;;;;;10.05;7.05;;;12.00;99.90;;;;;;5062609;28;20061;-63
2023/04/07 11:06:01;;;;;;;9.15;6.28;;;12.00;99.90;;;;;;5070152;28;20126;-65
2023/04/07 11:08:38;;;;;;;9.27;6.22;;;12.00;99.90;;;;;;5063567;28;20040;-65
2023/04/07 11:11:09;;;;;;;8.48;6.22;;;12.00;99.90;;;;;;5058976;28;20067;-64
2023/04/07 11:13:41;;;;;;;9.05;6.63;;;12.00;99.90;;;;;;5054283;28;20455;-65
2023/04/07 11:16:07;;;;;;;9.27;6.80;;;11.90;99.90;;;;;;5061383;28;20201;-65
2023/04/07 11:18:33;;;;;;;10.13;7.68;;;11.90;99.90;;;;;;5068699;28;20056;-64
2023/04/07 11:20:59;;;;;;;9.63;8.00;;;11.90;99.90;;;;;;5062798;28;20028;-64
2023/04/07 11:23:26;;;;;;;10.43;7.88;;;11.90;99.90;;;;;;5056031;28;20066;-65
2023/04/07 11:26:02;;;;;;;10.00;8.23;;;12.00;99.90;;;;;;5067013;28;20048;-65
2023/04/07 11:28:29;;;;;;;9.73;7.72;;;12.20;99.90;;;;;;5067927;28;20364;-64
2023/04/07 11:30:56;;;;;;;9.00;7.07;;;12.30;99.90;;;;;;5058370;28;20120;-64
2023/04/07 11:33:24;;;;;;;9.10;6.70;;;12.40;99.90;;;;;;5065357;28;20116;-64
2023/04/07 11:35:54;;;;;;;8.73;6.70;;;12.50;99.90;;;;;;5058907;28;20080;-65
2023/04/07 11:38:20;;;;;;;8.57;6.82;;;12.50;99.90;;;;;;5061385;28;20121;-65
2023/04/07 11:40:45;;;;;;;8.35;6.72;;;12.50;99.90;;;;;;5062818;28;20123;-64
2023/04/07 11:43:16;;;;;;;9.70;7.10;;;12.40;99.90;;;;;;5067725;28;20044;-64
2023/04/07 11:45:42;;;;;;;8.88;7.22;;;12.50;99.90;;;;;;5061953;28;20044;-65
2023/04/07 11:48:28;;;;;;;9.07;7.10;;;12.40;99.90;;;;;;5054230;28;20067;-65
2023/04/07 11:50:54;;;;;;;8.57;6.30;;;12.40;99.90;;;;;;5059843;28;20048;-65
2023/04/07 11:53:36;;;;;;;7.55;5.68;;;12.40;99.90;;;;;;5058998;28;20392;-64
2023/04/07 11:56:03;;;;;;;9.05;5.75;;;12.30;99.90;;;;;;5063558;28;20063;-64
2023/04/07 11:58:29;;;;;;;7.95;6.10;;;12.20;99.90;;;;;;5064815;28;20486;-64
2023/04/07 12:01:04;;;;;;;8.88;7.20;;;12.30;99.90;;;;;;5063750;28;20135;-65
2023/04/07 12:03:30;;;;;;;10.40;7.80;;;12.30;99.90;;;;;;5061233;28;20040;-65
2023/04/07 12:05:55;;;;;;;8.15;6.63;;;12.20;99.90;;;;;;5062865;28;20131;-64
2023/04/07 12:08:35;;;;;;;9.43;7.40;;;12.30;99.90;;;;;;5057018;28;20143;-65
2023/04/07 12:11:04;;;;;;;8.85;7.00;;;12.20;99.90;;;;;;5060731;28;20044;-65
2023/04/07 12:13:30;;;;;;;8.77;6.90;;;12.30;99.90;;;;;;5070238;28;20436;-65
2023/04/07 12:15:58;;;;;;;7.82;6.20;;;12.40;99.90;;;;;;5065265;28;20044;-65
2023/04/07 12:18:24;;;;;;;6.82;5.10;;;12.40;99.90;;;;;;5059320;28;20055;-65
2023/04/07 12:20:50;;;;;;;7.00;5.13;;;12.50;99.90;;;;;;5064947;28;20037;-64
2023/04/07 12:23:15;;;;;;;7.28;5.15;;;12.50;99.90;;;;;;5061321;28;20037;-64
2023/04/07 12:25:41;;;;;;;6.97;5.07;;;12.60;99.90;;;;;;5069281;28;20052;-65
2023/04/07 12:28:07;;;;;;;6.63;5.13;;;12.70;99.90;;;;;;5067856;28;20040;-64
2023/04/07 12:30:32;;;;;;;6.93;5.00;;;12.80;99.90;;;;;;5067238;28;20041;-65
2023/04/07 12:32:58;;;;;;;5.88;4.40;;;12.90;99.90;;;;;;5065397;28;20041;-65
2023/04/07 12:35:24;;;;;;;7.20;5.25;;;13.00;99.90;;;;;;5068814;28;20036;-65
2023/04/07 12:37:51;;;;;;;7.32;5.32;;;13.10;99.90;;;;;;5070116;28;20067;-65